Airfield :
LOGIN :

Register | Disclaimer

   EN    FR    IT 

 










Legend :    VFR   Marginal VFR   IFR   Intensive IFR   Very Intensive IFR
Visi :
Ceiling :
>= 8 km
>= 3000ft
5 to 8 km
1000 to 3000 ft
1500m to 5 km
500 to 1000 ft
800 to 1500m
200 to 500 ft
< 800m
< 200 ft
Symbols :   Thunderstorms  Fog  Heavy snow  Heavy precipitations  Wind > 20 kt
SIGMETs :     Misc.  Thunderstorms  Icing  Turbulence  Mountain Waves  Volcanic Ashes







- Airport Elevation : 101 ft
- IATA code : HAD


ESMT - Halmstad

CURRENT METAR :
  • 231620Z 30019KT 9999 FEW037 11/07 Q0996

EXPIRED METARs :
  • 231550Z 30018KT 9999 FEW037 11/07 Q0996
  • 231520Z 30020KT 9999 FEW037 11/07 Q0996
  • 231450Z 31022G33KT 9999 FEW048 11/06 Q0996
  • 231420Z 32023G35KT 9999 FEW034 SCT054 12/06 Q0996
  • 231350Z 30025G38KT 9999 FEW032 SCT049 12/06 Q0996

TAF TAF ESMT
Valid from the 23 at 15:00 until the 23 at 21:00 UTC


231359Z 2315/2321 30025KT 9999 SCT025
TEMPO 2315/2318 31028G40KT SCT020TCU
BECMG 2319/2321 33015KT
No reported NOTAMs for that airfield.



MET'MAP, your aeronautical weather chart ! - Copyright ORBIFLY December 2007 - Disclaimer

ORBIFLY MET'MAP TEAM :

Programming & Development : Alexandra Zaïnal
Concept & Development : Baudouin d'Aumeries
Co-Development & Prog : Marc-Olivier Méhu
Technical & hardware support : Manuel Goepfert

Contact : metmap@orbifly.com




SOURCES & CREDITS :

   NOAA